createdAt,value
2022-12-05T00:00:09.745Z,2.50
2022-12-05T00:02:39.365Z,2.50
2022-12-05T00:05:09.253Z,2.40
2022-12-05T00:07:39.470Z,2.20
2022-12-05T00:10:10.265Z,2.30
2022-12-05T00:12:40.274Z,2.40
2022-12-05T00:15:12.635Z,2.40
2022-12-05T00:17:42.250Z,2.40
2022-12-05T00:20:12.073Z,2.50
2022-12-05T00:22:41.570Z,2.50
2022-12-05T00:25:11.360Z,2.50
2022-12-05T00:27:41.013Z,2.40
2022-12-05T00:30:10.780Z,2.40
2022-12-05T00:32:40.225Z,2.40
2022-12-05T00:35:10.133Z,2.30
2022-12-05T00:37:39.570Z,2.10
2022-12-05T00:40:10.185Z,2.20
2022-12-05T00:42:39.738Z,2.30
2022-12-05T00:45:10.267Z,2.30
2022-12-05T00:47:39.727Z,2.30
2022-12-05T00:50:10.207Z,2.30
2022-12-05T00:52:39.715Z,2.30
2022-12-05T00:55:10.043Z,2.20
2022-12-05T00:57:39.470Z,2.20
2022-12-05T01:00:10.137Z,2.20
2022-12-05T01:02:39.632Z,2.20
2022-12-05T01:05:09.753Z,2.20
2022-12-05T01:07:39.488Z,2.20
2022-12-05T01:10:09.642Z,2.20
2022-12-05T01:12:39.171Z,2.20
2022-12-05T01:15:10.579Z,2.20
2022-12-05T01:17:40.570Z,2.20
2022-12-05T01:20:10.838Z,2.10
2022-12-05T01:22:40.266Z,2.10
2022-12-05T01:25:10.172Z,2.10
2022-12-05T01:27:39.761Z,2.10
2022-12-05T01:30:10.511Z,2.10
2022-12-05T01:32:39.943Z,2.00
2022-12-05T01:35:09.777Z,1.90
2022-12-05T01:37:39.212Z,2.00
2022-12-05T01:40:10.579Z,2.00
2022-12-05T01:42:41.072Z,2.00
2022-12-05T01:45:19.333Z,2.00
2022-12-05T01:47:49.193Z,2.00
2022-12-05T01:50:19.155Z,2.00
2022-12-05T01:52:48.858Z,1.90
2022-12-05T01:55:20.427Z,1.90
2022-12-05T01:57:51.025Z,1.80
2022-12-05T02:00:22.571Z,1.60
2022-12-05T02:02:55.268Z,1.30
2022-12-05T02:05:34.215Z,1.40
2022-12-05T02:08:07.624Z,1.60
2022-12-05T02:10:40.239Z,1.60
2022-12-05T02:13:29.327Z,1.70
2022-12-05T02:16:01.890Z,1.70
2022-12-05T02:18:51.599Z,1.70
2022-12-05T02:21:40.909Z,1.70
2022-12-05T02:24:49.202Z,1.80
2022-12-05T02:27:27.256Z,1.80
2022-12-05T02:30:02.856Z,1.70
2022-12-05T02:32:44.231Z,1.70
2022-12-05T02:35:42.577Z,1.50
2022-12-05T02:38:39.268Z,1.60
2022-12-05T02:41:29.743Z,1.60
2022-12-05T02:44:07.996Z,1.60
2022-12-05T02:46:39.953Z,1.60
2022-12-05T02:49:12.459Z,1.70
2022-12-05T02:51:48.219Z,1.70
2022-12-05T02:54:20.726Z,1.60
2022-12-05T02:56:53.257Z,1.60
2022-12-05T02:59:23.856Z,1.60
2022-12-05T03:01:54.094Z,1.50
2022-12-05T03:04:26.028Z,1.50
2022-12-05T03:07:01.439Z,1.60
2022-12-05T03:09:39.991Z,1.60
2022-12-05T03:12:21.332Z,1.60
2022-12-05T03:14:53.844Z,1.60
2022-12-05T03:17:24.392Z,1.50
2022-12-05T03:20:09.092Z,1.50
2022-12-05T03:22:54.047Z,1.40
2022-12-05T03:26:00.928Z,1.40
2022-12-05T03:28:35.967Z,1.50
2022-12-05T03:31:08.547Z,1.40
2022-12-05T03:33:41.174Z,1.00
2022-12-05T03:36:25.729Z,1.30
2022-12-05T03:39:13.291Z,1.40
2022-12-05T03:41:45.778Z,1.40
2022-12-05T03:44:24.692Z,1.40
2022-12-05T03:46:57.189Z,1.40
2022-12-05T03:49:34.288Z,1.30
2022-12-05T03:52:18.617Z,1.40
2022-12-05T03:54:54.406Z,1.40
2022-12-05T03:57:32.866Z,1.40
2022-12-05T04:00:08.063Z,1.30
2022-12-05T04:02:52.490Z,0.80
2022-12-05T04:05:46.162Z,0.80
2022-12-05T04:08:18.799Z,1.00
2022-12-05T04:10:51.271Z,1.20
2022-12-05T04:13:29.643Z,1.10
2022-12-05T04:16:19.829Z,1.00
2022-12-05T04:18:52.381Z,0.90
2022-12-05T04:21:40.197Z,0.80
2022-12-05T04:24:30.326Z,0.60
2022-12-05T04:27:19.739Z,0.80
2022-12-05T04:30:10.829Z,1.00
2022-12-05T04:32:45.980Z,1.10
2022-12-05T04:35:21.436Z,1.20
2022-12-05T04:37:54.527Z,1.00
2022-12-05T04:40:29.681Z,1.20
2022-12-05T04:43:02.182Z,1.20
2022-12-05T04:45:33.726Z,1.30
2022-12-05T04:48:06.223Z,1.40
2022-12-05T04:50:37.206Z,1.30
2022-12-05T04:53:09.248Z,1.20
2022-12-05T04:55:41.762Z,1.30
2022-12-05T04:58:14.263Z,1.30
2022-12-05T05:00:59.802Z,1.20
2022-12-05T05:03:32.213Z,1.20
2022-12-05T05:06:03.655Z,1.20
2022-12-05T05:08:33.084Z,1.20
2022-12-05T05:11:17.479Z,1.30
2022-12-05T05:13:47.025Z,1.30
2022-12-05T05:16:31.285Z,1.30
2022-12-05T05:19:00.781Z,1.20
2022-12-05T05:21:33.037Z,1.20
2022-12-05T05:24:03.167Z,1.20
2022-12-05T05:26:35.171Z,1.30
2022-12-05T05:29:04.860Z,1.30
2022-12-05T05:31:35.619Z,1.20
2022-12-05T05:34:09.757Z,1.20
2022-12-05T05:36:36.885Z,1.20
2022-12-05T05:39:07.660Z,1.20
2022-12-05T05:41:38.388Z,1.20
2022-12-05T05:44:07.814Z,1.10
2022-12-05T05:46:38.281Z,1.10
2022-12-05T05:49:08.143Z,1.10
2022-12-05T05:51:37.596Z,1.10
2022-12-05T05:54:07.119Z,1.10
2022-12-05T05:56:36.547Z,1.10
2022-12-05T05:59:06.051Z,1.10
2022-12-05T06:01:35.544Z,1.00
2022-12-05T06:04:05.168Z,1.00
2022-12-05T06:06:35.078Z,1.00
2022-12-05T06:09:06.062Z,1.00
2022-12-05T06:11:35.489Z,1.00
2022-12-05T06:14:04.906Z,1.00
2022-12-05T06:16:34.521Z,1.00
2022-12-05T06:19:03.938Z,1.00
2022-12-05T06:21:34.120Z,1.00
2022-12-05T06:24:03.635Z,0.90
2022-12-05T06:26:33.087Z,0.90
2022-12-05T06:29:02.501Z,0.90
2022-12-05T06:31:33.660Z,0.90
2022-12-05T06:34:05.070Z,0.90
2022-12-05T06:36:35.026Z,0.90
2022-12-05T06:39:05.459Z,0.80
2022-12-05T06:41:35.803Z,0.80
2022-12-05T06:44:06.060Z,0.80
2022-12-05T06:46:35.523Z,0.70
2022-12-05T06:49:05.027Z,0.70
2022-12-05T06:51:34.534Z,0.70
2022-12-05T06:54:04.148Z,0.70
2022-12-05T06:56:33.716Z,0.70
2022-12-05T06:59:03.133Z,0.70
2022-12-05T07:01:43.515Z,0.70
2022-12-05T07:04:16.253Z,0.60
2022-12-05T07:06:50.786Z,0.50
2022-12-05T07:09:22.640Z,0.60
2022-12-05T07:11:52.711Z,0.50
2022-12-05T07:16:54.308Z,0.70
2022-12-05T07:19:24.534Z,0.70
2022-12-05T07:21:54.028Z,0.70
2022-12-05T07:24:23.512Z,0.80
2022-12-05T07:26:53.040Z,0.80
2022-12-05T07:29:22.500Z,0.80
2022-12-05T07:31:51.971Z,0.70
2022-12-05T07:34:21.533Z,0.60
2022-12-05T07:36:50.992Z,0.50
2022-12-05T07:39:20.413Z,0.70
2022-12-05T07:41:49.862Z,0.70
2022-12-05T07:44:19.634Z,0.70
2022-12-05T07:46:49.178Z,0.80
2022-12-05T07:49:18.766Z,0.90
2022-12-05T07:51:49.957Z,0.80
2022-12-05T07:54:19.541Z,0.90
2022-12-05T07:56:48.975Z,0.90
2022-12-05T07:59:18.535Z,0.90
2022-12-05T08:01:48.105Z,1.00
2022-12-05T08:04:18.280Z,1.00
2022-12-05T08:06:47.758Z,1.10
2022-12-05T08:09:17.192Z,1.30
2022-12-05T08:11:52.174Z,1.50
2022-12-05T08:14:17.701Z,1.60
2022-12-05T08:16:47.288Z,1.50
2022-12-05T08:19:17.401Z,1.50
2022-12-05T08:21:47.001Z,1.80
2022-12-05T08:24:16.439Z,2.00
2022-12-05T08:26:45.874Z,2.60
2022-12-05T08:29:16.823Z,3.30
2022-12-05T08:31:49.426Z,3.90
2022-12-05T08:34:21.117Z,4.70
2022-12-05T08:36:50.614Z,5.40
2022-12-05T08:39:21.257Z,6.20
2022-12-05T08:41:51.118Z,6.50
2022-12-05T08:44:20.619Z,7.10
2022-12-05T08:46:51.733Z,6.90
2022-12-05T08:49:21.952Z,6.50
2022-12-05T08:51:51.542Z,6.30
2022-12-05T08:54:21.046Z,7.00
2022-12-05T08:56:53.237Z,7.70
2022-12-05T08:59:22.755Z,7.50
2022-12-05T09:01:52.692Z,8.40
2022-12-05T09:04:22.174Z,8.30
2022-12-05T09:06:52.270Z,7.70
2022-12-05T09:09:21.703Z,8.40
2022-12-05T09:11:51.429Z,9.30
2022-12-05T09:14:20.929Z,9.30
2022-12-05T09:16:50.618Z,8.10
2022-12-05T09:19:23.188Z,9.50
2022-12-05T09:21:52.685Z,10.10
2022-12-05T09:24:22.271Z,10.70
2022-12-05T09:26:52.365Z,10.70
2022-12-05T09:29:22.119Z,11.20
2022-12-05T09:31:53.234Z,11.30
2022-12-05T09:34:24.371Z,11.30
2022-12-05T09:37:10.159Z,11.40
2022-12-05T09:39:25.592Z,11.50
2022-12-05T09:42:08.713Z,11.30
2022-12-05T09:44:50.168Z,11.70
2022-12-05T09:47:37.534Z,11.30
2022-12-05T09:50:25.276Z,10.50
2022-12-05T09:53:25.287Z,11.00
2022-12-05T09:56:17.452Z,11.40
2022-12-05T09:58:50.223Z,10.90
2022-12-05T10:01:22.768Z,10.40
2022-12-05T10:04:23.967Z,9.20
2022-12-05T10:07:11.614Z,7.70
2022-12-05T10:09:59.023Z,7.70
2022-12-05T10:12:52.658Z,9.10
2022-12-05T10:15:45.955Z,9.80
2022-12-05T10:18:39.642Z,8.50
2022-12-05T10:21:15.971Z,7.30
2022-12-05T10:23:58.659Z,7.30
2022-12-05T10:26:29.458Z,7.20
2022-12-05T10:29:17.147Z,7.40
2022-12-05T10:31:49.346Z,7.30
2022-12-05T10:34:33.672Z,7.40
2022-12-05T10:37:23.436Z,7.10
2022-12-05T10:39:55.685Z,7.10
2022-12-05T10:42:28.191Z,7.30
2022-12-05T10:45:03.369Z,7.10
2022-12-05T10:47:34.689Z,7.30
2022-12-05T10:50:25.024Z,7.20
2022-12-05T10:52:57.567Z,7.30
2022-12-05T10:55:32.694Z,7.70
2022-12-05T10:58:18.004Z,7.80
2022-12-05T11:00:51.856Z,7.60
2022-12-05T11:03:27.829Z,7.40
2022-12-05T11:06:00.714Z,7.80
2022-12-05T11:09:02.458Z,7.70
2022-12-05T11:11:22.258Z,7.80
2022-12-05T11:13:57.309Z,7.90
2022-12-05T11:16:29.954Z,7.90
2022-12-05T11:19:17.526Z,7.90
2022-12-05T11:21:47.143Z,8.10
2022-12-05T11:24:31.617Z,7.90
2022-12-05T11:27:04.208Z,8.10
2022-12-05T11:29:39.102Z,8.20
2022-12-05T11:32:23.463Z,8.50
2022-12-05T11:35:08.082Z,8.40
2022-12-05T11:37:54.034Z,8.60
2022-12-05T11:40:38.980Z,8.40
2022-12-05T11:43:27.092Z,8.50
2022-12-05T11:46:26.366Z,8.50
2022-12-05T11:49:02.519Z,8.60
2022-12-05T11:51:44.021Z,8.80
2022-12-05T11:57:11.970Z,8.80
2022-12-05T12:00:07.886Z,8.80
2022-12-05T12:02:45.940Z,8.70
2022-12-05T12:05:24.503Z,9.00
2022-12-05T12:08:18.815Z,8.90
2022-12-05T12:10:51.367Z,8.90
2022-12-05T12:13:46.576Z,8.90
2022-12-05T12:16:31.350Z,9.10
2022-12-05T12:19:09.894Z,9.10
2022-12-05T12:21:51.306Z,9.10
2022-12-05T12:24:41.362Z,9.20
2022-12-05T12:27:49.643Z,9.20
2022-12-05T12:30:24.873Z,9.40
2022-12-05T12:33:10.106Z,9.40
2022-12-05T12:36:00.243Z,9.30
2022-12-05T12:38:51.716Z,9.30
2022-12-05T12:41:40.866Z,9.30
2022-12-05T12:44:21.816Z,9.50
2022-12-05T12:47:03.559Z,9.50
2022-12-05T12:49:41.594Z,9.60
2022-12-05T12:52:16.782Z,9.60
2022-12-05T12:55:08.483Z,9.70
2022-12-05T12:57:47.334Z,9.70
2022-12-05T13:00:36.541Z,9.50
2022-12-05T13:03:09.043Z,9.70
2022-12-05T13:05:56.712Z,9.90
2022-12-05T13:08:44.082Z,9.80
2022-12-05T13:11:16.666Z,9.70
2022-12-05T13:13:49.392Z,10.00
2022-12-05T13:16:24.990Z,10.00
2022-12-05T13:18:56.813Z,10.10
2022-12-05T13:21:28.549Z,10.00
2022-12-05T13:24:06.427Z,10.40
2022-12-05T13:26:36.087Z,10.50
2022-12-05T13:29:06.337Z,10.60
2022-12-05T13:31:39.079Z,10.50
2022-12-05T13:34:09.305Z,10.50
2022-12-05T13:36:59.385Z,10.50
2022-12-05T13:39:48.882Z,10.40
2022-12-05T13:42:28.039Z,10.40
2022-12-05T13:45:06.144Z,10.60
2022-12-05T13:47:59.730Z,10.70
2022-12-05T13:50:36.315Z,10.60
2022-12-05T13:53:08.806Z,10.50
2022-12-05T13:55:41.094Z,10.40
2022-12-05T13:58:28.793Z,10.40
2022-12-05T14:01:27.769Z,10.40
2022-12-05T14:04:01.157Z,10.30
2022-12-05T14:06:39.755Z,10.30
2022-12-05T14:09:20.817Z,10.30
2022-12-05T14:12:15.554Z,10.20
2022-12-05T14:15:04.482Z,10.10
2022-12-05T14:17:36.478Z,10.20
2022-12-05T14:20:20.972Z,10.20
2022-12-05T14:23:02.192Z,10.30
2022-12-05T14:25:54.625Z,10.20
2022-12-05T14:28:51.427Z,10.30
2022-12-05T14:31:39.447Z,10.50
2022-12-05T14:34:19.164Z,10.50
2022-12-05T14:37:01.054Z,10.40
2022-12-05T14:39:39.984Z,10.40
2022-12-05T14:42:41.590Z,10.40
2022-12-05T14:45:25.907Z,10.30
2022-12-05T14:48:01.162Z,10.30
2022-12-05T14:50:51.286Z,10.30
2022-12-05T14:53:24.373Z,10.30
2022-12-05T14:55:59.644Z,10.20
2022-12-05T14:58:53.056Z,10.10
2022-12-05T15:01:34.459Z,10.10
2022-12-05T15:04:20.311Z,10.10
2022-12-05T15:06:53.536Z,10.00
2022-12-05T15:09:37.614Z,10.00
2022-12-05T15:12:09.698Z,10.20
2022-12-05T15:14:48.511Z,10.30
2022-12-05T15:17:21.083Z,10.30
2022-12-05T15:19:59.377Z,10.20
2022-12-05T15:22:32.609Z,10.10
2022-12-05T15:25:16.166Z,10.10
2022-12-05T15:27:57.659Z,10.10
2022-12-05T15:30:28.656Z,10.00
2022-12-05T15:33:00.548Z,10.10
2022-12-05T15:35:33.060Z,10.00
2022-12-05T15:38:09.359Z,10.00
2022-12-05T15:40:38.996Z,10.00
2022-12-05T15:43:27.817Z,9.80
2022-12-05T15:46:27.775Z,9.80
2022-12-05T15:49:01.125Z,9.80
2022-12-05T15:51:36.820Z,9.60
2022-12-05T15:54:15.016Z,9.60
2022-12-05T15:56:50.246Z,9.50
2022-12-05T15:59:25.688Z,9.50
2022-12-05T16:01:58.283Z,9.40
2022-12-05T16:04:39.720Z,9.30
2022-12-05T16:07:12.134Z,9.30
2022-12-05T16:09:44.311Z,9.30
2022-12-05T16:12:19.783Z,9.20
2022-12-05T16:15:00.677Z,9.10
2022-12-05T16:17:24.558Z,9.00
2022-12-05T16:19:54.374Z,8.90
2022-12-05T16:22:28.732Z,8.90
2022-12-05T16:25:05.317Z,8.70
2022-12-05T16:27:39.364Z,8.50
2022-12-05T16:30:20.590Z,8.40
2022-12-05T16:32:54.286Z,8.30
2022-12-05T16:35:45.934Z,8.30
2022-12-05T16:38:25.742Z,8.30
2022-12-05T16:41:01.086Z,8.20
2022-12-05T16:43:36.537Z,8.10
2022-12-05T16:46:18.080Z,8.00
2022-12-05T16:49:10.444Z,7.90
2022-12-05T16:51:45.588Z,7.80
2022-12-05T16:54:15.028Z,7.80
2022-12-05T16:56:44.450Z,7.70
2022-12-05T16:59:26.615Z,7.60
2022-12-05T17:01:57.461Z,7.50
2022-12-05T17:04:27.217Z,7.50
2022-12-05T17:06:57.289Z,7.50
2022-12-05T17:09:26.812Z,7.50
2022-12-05T17:12:14.514Z,7.40
2022-12-05T17:14:43.949Z,7.40
2022-12-05T17:17:17.109Z,7.30
2022-12-05T17:19:46.627Z,7.30
2022-12-05T17:22:17.507Z,7.30
2022-12-05T17:24:47.214Z,7.20
2022-12-05T17:27:17.963Z,7.30
2022-12-05T17:29:47.390Z,7.40
2022-12-05T17:32:16.815Z,7.60
2022-12-05T17:34:46.336Z,7.60
2022-12-05T17:37:18.466Z,7.70
2022-12-05T17:39:47.942Z,7.80
2022-12-05T17:42:17.362Z,8.00
2022-12-05T17:44:46.986Z,8.10
2022-12-05T17:47:16.553Z,8.10
2022-12-05T17:49:46.037Z,7.90
2022-12-05T17:52:23.571Z,8.10
2022-12-05T17:54:47.603Z,8.10
2022-12-05T17:57:17.083Z,8.10
2022-12-05T17:59:46.576Z,8.20
2022-12-05T18:02:17.736Z,8.20
2022-12-05T18:04:48.013Z,8.10
2022-12-05T18:07:19.017Z,8.10
2022-12-05T18:09:48.527Z,8.10
2022-12-05T18:12:18.091Z,8.10
2022-12-05T18:14:47.718Z,8.10
2022-12-05T18:17:17.131Z,8.10
2022-12-05T18:19:46.707Z,8.10
2022-12-05T18:22:29.195Z,8.00
2022-12-05T18:25:00.629Z,8.00
2022-12-05T18:27:32.262Z,8.00
2022-12-05T18:30:01.963Z,8.00
2022-12-05T18:32:31.391Z,7.90
2022-12-05T18:35:02.332Z,7.90
2022-12-05T18:37:34.113Z,7.90
2022-12-05T18:40:04.582Z,7.80
2022-12-05T18:42:34.007Z,7.80
2022-12-05T18:45:04.554Z,7.80
2022-12-05T18:47:34.046Z,7.70
2022-12-05T18:50:03.548Z,7.80
2022-12-05T18:52:33.026Z,7.70
2022-12-05T18:55:16.945Z,7.70
2022-12-05T18:57:36.400Z,7.80
2022-12-05T19:00:07.439Z,7.70
2022-12-05T19:02:37.053Z,7.70
2022-12-05T19:05:06.711Z,7.80
2022-12-05T19:07:36.192Z,7.70
2022-12-05T19:10:07.015Z,7.80
2022-12-05T19:12:36.581Z,7.80
2022-12-05T19:15:06.955Z,7.70
2022-12-05T19:17:36.376Z,7.70
2022-12-05T19:20:07.701Z,7.60
2022-12-05T19:22:37.119Z,7.70
2022-12-05T19:25:07.339Z,7.60
2022-12-05T19:27:36.791Z,7.60
2022-12-05T19:30:10.263Z,7.60
2022-12-05T19:32:40.681Z,7.60
2022-12-05T19:35:11.344Z,7.60
2022-12-05T19:37:40.770Z,7.60
2022-12-05T19:40:11.483Z,7.70
2022-12-05T19:42:41.120Z,7.60
2022-12-05T19:45:16.409Z,7.70
2022-12-05T19:47:42.092Z,7.60
2022-12-05T19:50:11.600Z,7.60
2022-12-05T19:52:41.030Z,7.70
2022-12-05T19:55:10.646Z,7.70
2022-12-05T19:57:40.070Z,7.70
2022-12-05T20:00:13.031Z,7.60
2022-12-05T20:02:45.581Z,7.60
2022-12-05T20:05:13.882Z,7.60
2022-12-05T20:07:43.459Z,7.60
2022-12-05T20:10:12.930Z,7.60
2022-12-05T20:12:42.422Z,7.50
2022-12-05T20:15:11.851Z,7.60
2022-12-05T20:17:41.323Z,7.60
2022-12-05T20:20:11.250Z,7.60
2022-12-05T20:22:40.663Z,7.50
2022-12-05T20:25:10.227Z,7.60
2022-12-05T20:27:39.850Z,7.60
2022-12-05T20:30:10.486Z,7.70
2022-12-05T20:32:39.940Z,7.60
2022-12-05T20:35:09.599Z,7.60
2022-12-05T20:37:39.019Z,7.60
2022-12-05T20:40:09.545Z,7.70
2022-12-05T20:42:44.989Z,7.60
2022-12-05T20:45:10.480Z,7.60
2022-12-05T20:47:39.867Z,7.60
2022-12-05T20:50:10.034Z,7.60
2022-12-05T20:52:45.201Z,7.70
2022-12-05T20:55:11.388Z,7.60
2022-12-05T20:57:42.541Z,7.60
2022-12-05T21:00:13.611Z,7.70
2022-12-05T21:02:43.082Z,7.70
2022-12-05T21:05:13.453Z,7.70
2022-12-05T21:07:42.979Z,7.70
2022-12-05T21:10:12.646Z,7.70
2022-12-05T21:12:42.091Z,7.70
2022-12-05T21:15:11.894Z,7.70
2022-12-05T21:17:41.324Z,7.70
2022-12-05T21:20:11.213Z,7.70
2022-12-05T21:22:40.746Z,7.70
2022-12-05T21:25:10.146Z,7.70
2022-12-05T21:27:39.573Z,7.70
2022-12-05T21:30:10.243Z,7.70
2022-12-05T21:32:40.617Z,7.70
2022-12-05T21:35:11.883Z,7.70
2022-12-05T21:37:42.078Z,7.70
2022-12-05T21:40:11.744Z,7.70
2022-12-05T21:42:41.960Z,7.70
2022-12-05T21:45:11.738Z,7.70
2022-12-05T21:47:41.261Z,7.70
2022-12-05T21:50:11.378Z,7.70
2022-12-05T21:52:40.963Z,7.70
2022-12-05T21:55:11.370Z,7.70
2022-12-05T21:57:40.808Z,7.70
2022-12-05T22:00:11.291Z,7.70
2022-12-05T22:02:40.739Z,7.70
2022-12-05T22:05:11.357Z,7.60
2022-12-05T22:07:40.896Z,7.70
2022-12-05T22:10:12.912Z,7.80
2022-12-05T22:12:42.469Z,7.70
2022-12-05T22:15:13.304Z,7.70
2022-12-05T22:17:42.859Z,7.70
2022-12-05T22:20:12.441Z,7.80
2022-12-05T22:22:41.910Z,7.60
2022-12-05T22:25:11.327Z,7.60
2022-12-05T22:27:40.814Z,7.60
2022-12-05T22:30:11.750Z,7.70
2022-12-05T22:32:41.151Z,7.60
2022-12-05T22:35:10.589Z,7.50
2022-12-05T22:37:40.065Z,7.50
2022-12-05T22:40:10.571Z,7.50
2022-12-05T22:42:40.064Z,7.50
2022-12-05T22:45:10.383Z,7.60
2022-12-05T22:47:39.803Z,7.50
2022-12-05T22:50:10.100Z,7.40
2022-12-05T22:52:39.517Z,7.40
2022-12-05T22:55:09.915Z,7.30
2022-12-05T22:57:39.390Z,7.30
2022-12-05T23:00:10.319Z,7.20
2022-12-05T23:02:39.880Z,7.20
2022-12-05T23:05:09.490Z,7.20
2022-12-05T23:07:39.018Z,7.20
2022-12-05T23:10:09.619Z,7.20
2022-12-05T23:12:39.579Z,7.20
2022-12-05T23:15:09.849Z,7.10
2022-12-05T23:17:39.407Z,7.10
2022-12-05T23:20:09.830Z,7.10
2022-12-05T23:22:39.312Z,7.10
2022-12-05T23:25:10.090Z,7.10
2022-12-05T23:27:39.960Z,7.20
2022-12-05T23:30:10.906Z,7.20
2022-12-05T23:32:40.428Z,7.10
2022-12-05T23:35:11.366Z,7.10
2022-12-05T23:37:42.047Z,7.10
2022-12-05T23:40:11.690Z,7.10
2022-12-05T23:42:41.223Z,7.00
2022-12-05T23:45:12.029Z,7.00
2022-12-05T23:47:41.447Z,6.90
2022-12-05T23:50:11.135Z,6.90
2022-12-05T23:52:40.700Z,6.90
2022-12-05T23:55:10.723Z,6.90
2022-12-05T23:57:40.194Z,6.90
